sensor_id;sensor_type;location;lat;lon;timestamp;P1;durP1;ratioP1;P2;durP2;ratioP2
23802;SDS011;12082;51.786;6.018;2022-08-03T00:02:22;4.40;;;2.87;;
23802;SDS011;12082;51.786;6.018;2022-08-03T00:04:47;6.20;;;2.73;;
23802;SDS011;12082;51.786;6.018;2022-08-03T00:07:13;6.33;;;3.20;;
23802;SDS011;12082;51.786;6.018;2022-08-03T00:09:39;7.00;;;2.70;;
23802;SDS011;12082;51.786;6.018;2022-08-03T00:12:04;4.20;;;2.80;;
23802;SDS011;12082;51.786;6.018;2022-08-03T00:14:30;7.90;;;2.40;;
23802;SDS011;12082;51.786;6.018;2022-08-03T00:16:56;5.23;;;3.10;;
23802;SDS011;12082;51.786;6.018;2022-08-03T00:19:22;8.50;;;2.60;;
23802;SDS011;12082;51.786;6.018;2022-08-03T00:21:47;5.63;;;2.67;;
23802;SDS011;12082;51.786;6.018;2022-08-03T00:24:13;13.40;;;2.80;;
23802;SDS011;12082;51.786;6.018;2022-08-03T00:26:38;4.10;;;2.83;;
23802;SDS011;12082;51.786;6.018;2022-08-03T00:29:04;7.43;;;2.50;;
23802;SDS011;12082;51.786;6.018;2022-08-03T00:31:30;7.10;;;2.63;;
23802;SDS011;12082;51.786;6.018;2022-08-03T00:33:55;7.43;;;2.90;;
23802;SDS011;12082;51.786;6.018;2022-08-03T00:36:21;6.73;;;2.40;;
23802;SDS011;12082;51.786;6.018;2022-08-03T00:38:46;7.77;;;3.13;;
23802;SDS011;12082;51.786;6.018;2022-08-03T00:41:12;6.33;;;2.60;;
23802;SDS011;12082;51.786;6.018;2022-08-03T00:43:37;8.93;;;2.67;;
23802;SDS011;12082;51.786;6.018;2022-08-03T00:46:03;5.10;;;2.60;;
23802;SDS011;12082;51.786;6.018;2022-08-03T00:48:29;4.67;;;2.50;;
23802;SDS011;12082;51.786;6.018;2022-08-03T00:50:54;5.50;;;2.43;;
23802;SDS011;12082;51.786;6.018;2022-08-03T00:53:20;6.00;;;2.73;;
23802;SDS011;12082;51.786;6.018;2022-08-03T00:55:46;7.37;;;2.77;;
23802;SDS011;12082;51.786;6.018;2022-08-03T00:58:11;6.27;;;2.60;;
23802;SDS011;12082;51.786;6.018;2022-08-03T01:00:38;8.27;;;3.10;;
23802;SDS011;12082;51.786;6.018;2022-08-03T01:03:05;5.33;;;2.90;;
23802;SDS011;12082;51.786;6.018;2022-08-03T01:05:52;8.77;;;2.70;;
23802;SDS011;12082;51.786;6.018;2022-08-03T01:11:05;3.30;;;2.37;;
23802;SDS011;12082;51.786;6.018;2022-08-03T01:16:11;4.23;;;2.37;;
23802;SDS011;12082;51.786;6.018;2022-08-03T01:19:01;5.53;;;2.53;;
23802;SDS011;12082;51.786;6.018;2022-08-03T01:25:01;7.93;;;3.03;;
23802;SDS011;12082;51.786;6.018;2022-08-03T01:27:39;3.70;;;2.70;;
23802;SDS011;12082;51.786;6.018;2022-08-03T01:30:29;5.70;;;2.83;;
23802;SDS011;12082;51.786;6.018;2022-08-03T01:32:58;4.33;;;2.90;;
23802;SDS011;12082;51.786;6.018;2022-08-03T01:35:32;5.60;;;3.07;;
23802;SDS011;12082;51.786;6.018;2022-08-03T01:38:01;5.60;;;3.20;;
23802;SDS011;12082;51.786;6.018;2022-08-03T01:40:30;6.23;;;2.87;;
23802;SDS011;12082;51.786;6.018;2022-08-03T01:42:58;4.57;;;2.57;;
23802;SDS011;12082;51.786;6.018;2022-08-03T01:45:26;5.50;;;3.20;;
23802;SDS011;12082;51.786;6.018;2022-08-03T01:47:53;6.33;;;3.17;;
23802;SDS011;12082;51.786;6.018;2022-08-03T01:50:21;6.07;;;3.07;;
23802;SDS011;12082;51.786;6.018;2022-08-03T01:52:50;6.10;;;3.20;;
23802;SDS011;12082;51.786;6.018;2022-08-03T01:55:17;6.63;;;3.03;;
23802;SDS011;12082;51.786;6.018;2022-08-03T01:57:44;6.77;;;3.00;;
23802;SDS011;12082;51.786;6.018;2022-08-03T02:00:12;7.60;;;3.10;;
23802;SDS011;12082;51.786;6.018;2022-08-03T02:02:38;8.23;;;2.87;;
23802;SDS011;12082;51.786;6.018;2022-08-03T02:05:08;6.23;;;3.27;;
23802;SDS011;12082;51.786;6.018;2022-08-03T02:07:35;11.47;;;3.17;;
23802;SDS011;12082;51.786;6.018;2022-08-03T02:10:04;5.20;;;3.10;;
23802;SDS011;12082;51.786;6.018;2022-08-03T02:12:31;8.47;;;3.60;;
23802;SDS011;12082;51.786;6.018;2022-08-03T02:14:59;5.37;;;3.30;;
23802;SDS011;12082;51.786;6.018;2022-08-03T02:17:26;3.87;;;3.33;;
23802;SDS011;12082;51.786;6.018;2022-08-03T02:19:53;4.70;;;3.77;;
23802;SDS011;12082;51.786;6.018;2022-08-03T02:22:22;7.00;;;3.83;;
23802;SDS011;12082;51.786;6.018;2022-08-03T02:24:49;4.90;;;3.47;;
23802;SDS011;12082;51.786;6.018;2022-08-03T02:27:19;5.93;;;3.50;;
23802;SDS011;12082;51.786;6.018;2022-08-03T02:29:48;8.13;;;3.93;;
23802;SDS011;12082;51.786;6.018;2022-08-03T02:32:19;3.57;;;3.20;;
23802;SDS011;12082;51.786;6.018;2022-08-03T02:34:49;7.27;;;3.27;;
23802;SDS011;12082;51.786;6.018;2022-08-03T02:37:17;5.53;;;2.93;;
23802;SDS011;12082;51.786;6.018;2022-08-03T02:39:44;11.00;;;3.83;;
23802;SDS011;12082;51.786;6.018;2022-08-03T02:42:12;9.03;;;3.57;;
23802;SDS011;12082;51.786;6.018;2022-08-03T02:44:40;12.03;;;4.33;;
23802;SDS011;12082;51.786;6.018;2022-08-03T02:47:11;9.80;;;3.80;;
23802;SDS011;12082;51.786;6.018;2022-08-03T02:49:39;6.20;;;3.83;;
23802;SDS011;12082;51.786;6.018;2022-08-03T02:52:08;6.13;;;2.90;;
23802;SDS011;12082;51.786;6.018;2022-08-03T02:54:35;5.93;;;3.10;;
23802;SDS011;12082;51.786;6.018;2022-08-03T02:57:02;6.00;;;3.17;;
23802;SDS011;12082;51.786;6.018;2022-08-03T02:59:33;11.40;;;4.03;;
23802;SDS011;12082;51.786;6.018;2022-08-03T03:01:59;12.63;;;4.13;;
23802;SDS011;12082;51.786;6.018;2022-08-03T03:04:27;19.27;;;6.27;;
23802;SDS011;12082;51.786;6.018;2022-08-03T03:06:54;13.07;;;6.83;;
23802;SDS011;12082;51.786;6.018;2022-08-03T03:09:21;14.80;;;8.20;;
23802;SDS011;12082;51.786;6.018;2022-08-03T03:11:47;14.07;;;7.57;;
23802;SDS011;12082;51.786;6.018;2022-08-03T03:14:14;13.93;;;7.30;;
23802;SDS011;12082;51.786;6.018;2022-08-03T03:16:41;20.40;;;8.83;;
23802;SDS011;12082;51.786;6.018;2022-08-03T03:19:08;15.80;;;8.43;;
23802;SDS011;12082;51.786;6.018;2022-08-03T03:21:37;20.27;;;8.17;;
23802;SDS011;12082;51.786;6.018;2022-08-03T03:24:04;16.13;;;7.77;;
23802;SDS011;12082;51.786;6.018;2022-08-03T03:26:32;15.47;;;6.80;;
23802;SDS011;12082;51.786;6.018;2022-08-03T03:28:58;15.93;;;7.20;;
23802;SDS011;12082;51.786;6.018;2022-08-03T03:31:26;14.77;;;7.03;;
23802;SDS011;12082;51.786;6.018;2022-08-03T03:33:52;17.87;;;7.27;;
23802;SDS011;12082;51.786;6.018;2022-08-03T03:36:18;16.17;;;6.13;;
23802;SDS011;12082;51.786;6.018;2022-08-03T03:38:44;14.93;;;7.03;;
23802;SDS011;12082;51.786;6.018;2022-08-03T03:41:10;13.13;;;6.27;;
23802;SDS011;12082;51.786;6.018;2022-08-03T03:43:36;15.40;;;6.13;;
23802;SDS011;12082;51.786;6.018;2022-08-03T03:46:01;15.90;;;5.97;;
23802;SDS011;12082;51.786;6.018;2022-08-03T03:48:27;15.37;;;6.27;;
23802;SDS011;12082;51.786;6.018;2022-08-03T03:50:53;15.70;;;6.00;;
23802;SDS011;12082;51.786;6.018;2022-08-03T03:53:21;17.80;;;6.70;;
23802;SDS011;12082;51.786;6.018;2022-08-03T03:55:47;14.83;;;6.50;;
23802;SDS011;12082;51.786;6.018;2022-08-03T03:58:12;18.20;;;6.40;;
23802;SDS011;12082;51.786;6.018;2022-08-03T04:00:38;11.80;;;6.10;;
23802;SDS011;12082;51.786;6.018;2022-08-03T04:03:04;16.70;;;7.93;;
23802;SDS011;12082;51.786;6.018;2022-08-03T04:05:29;17.03;;;6.50;;
23802;SDS011;12082;51.786;6.018;2022-08-03T04:08:17;18.70;;;6.90;;
23802;SDS011;12082;51.786;6.018;2022-08-03T04:13:40;10.03;;;5.93;;
23802;SDS011;12082;51.786;6.018;2022-08-03T04:16:11;12.63;;;5.73;;
23802;SDS011;12082;51.786;6.018;2022-08-03T04:18:40;10.13;;;6.07;;
23802;SDS011;12082;51.786;6.018;2022-08-03T04:21:12;10.67;;;5.07;;
23802;SDS011;12082;51.786;6.018;2022-08-03T04:23:40;17.80;;;6.20;;
23802;SDS011;12082;51.786;6.018;2022-08-03T04:26:10;18.23;;;6.10;;
23802;SDS011;12082;51.786;6.018;2022-08-03T04:28:38;15.97;;;6.60;;
23802;SDS011;12082;51.786;6.018;2022-08-03T04:31:07;17.97;;;6.57;;
23802;SDS011;12082;51.786;6.018;2022-08-03T04:33:34;12.63;;;6.40;;
23802;SDS011;12082;51.786;6.018;2022-08-03T04:36:03;20.10;;;6.63;;
23802;SDS011;12082;51.786;6.018;2022-08-03T04:38:32;18.63;;;5.93;;
23802;SDS011;12082;51.786;6.018;2022-08-03T04:41:02;15.37;;;5.77;;
23802;SDS011;12082;51.786;6.018;2022-08-03T04:43:28;13.43;;;5.87;;
23802;SDS011;12082;51.786;6.018;2022-08-03T04:45:56;18.20;;;6.20;;
23802;SDS011;12082;51.786;6.018;2022-08-03T04:48:23;14.13;;;5.70;;
23802;SDS011;12082;51.786;6.018;2022-08-03T04:50:49;12.60;;;6.50;;
23802;SDS011;12082;51.786;6.018;2022-08-03T04:53:15;10.67;;;6.47;;
23802;SDS011;12082;51.786;6.018;2022-08-03T04:55:42;13.37;;;6.93;;
23802;SDS011;12082;51.786;6.018;2022-08-03T04:58:08;15.27;;;7.33;;
23802;SDS011;12082;51.786;6.018;2022-08-03T05:00:33;13.67;;;6.83;;
23802;SDS011;12082;51.786;6.018;2022-08-03T05:02:59;12.30;;;6.50;;
23802;SDS011;12082;51.786;6.018;2022-08-03T05:05:24;14.83;;;6.73;;
23802;SDS011;12082;51.786;6.018;2022-08-03T05:07:50;15.37;;;7.77;;
23802;SDS011;12082;51.786;6.018;2022-08-03T05:10:16;10.87;;;7.33;;
23802;SDS011;12082;51.786;6.018;2022-08-03T05:12:43;15.63;;;7.23;;
23802;SDS011;12082;51.786;6.018;2022-08-03T05:15:12;12.63;;;6.87;;
23802;SDS011;12082;51.786;6.018;2022-08-03T05:17:38;13.33;;;6.63;;
23802;SDS011;12082;51.786;6.018;2022-08-03T05:20:04;13.70;;;7.57;;
23802;SDS011;12082;51.786;6.018;2022-08-03T05:22:30;12.73;;;6.90;;
23802;SDS011;12082;51.786;6.018;2022-08-03T05:24:56;11.77;;;6.40;;
23802;SDS011;12082;51.786;6.018;2022-08-03T05:27:21;16.93;;;7.10;;
23802;SDS011;12082;51.786;6.018;2022-08-03T05:29:48;17.27;;;7.87;;
23802;SDS011;12082;51.786;6.018;2022-08-03T05:32:15;18.40;;;8.43;;
23802;SDS011;12082;51.786;6.018;2022-08-03T05:34:41;15.80;;;7.10;;
23802;SDS011;12082;51.786;6.018;2022-08-03T05:37:07;15.63;;;6.83;;
23802;SDS011;12082;51.786;6.018;2022-08-03T05:39:33;11.03;;;6.83;;
23802;SDS011;12082;51.786;6.018;2022-08-03T05:41:59;14.23;;;6.80;;
23802;SDS011;12082;51.786;6.018;2022-08-03T05:44:24;13.67;;;7.30;;
23802;SDS011;12082;51.786;6.018;2022-08-03T05:46:50;13.00;;;6.43;;
23802;SDS011;12082;51.786;6.018;2022-08-03T05:49:16;12.77;;;6.43;;
23802;SDS011;12082;51.786;6.018;2022-08-03T05:51:43;15.07;;;6.53;;
23802;SDS011;12082;51.786;6.018;2022-08-03T05:54:08;9.83;;;5.93;;
23802;SDS011;12082;51.786;6.018;2022-08-03T05:56:34;13.87;;;5.30;;
23802;SDS011;12082;51.786;6.018;2022-08-03T05:59:00;12.00;;;5.60;;
23802;SDS011;12082;51.786;6.018;2022-08-03T06:01:25;7.67;;;4.73;;
23802;SDS011;12082;51.786;6.018;2022-08-03T06:03:51;7.43;;;3.97;;
23802;SDS011;12082;51.786;6.018;2022-08-03T06:06:16;10.03;;;5.10;;
23802;SDS011;12082;51.786;6.018;2022-08-03T06:08:42;19.20;;;5.00;;
23802;SDS011;12082;51.786;6.018;2022-08-03T06:11:08;12.00;;;4.40;;
23802;SDS011;12082;51.786;6.018;2022-08-03T06:13:34;10.43;;;4.10;;
23802;SDS011;12082;51.786;6.018;2022-08-03T06:16:01;12.17;;;4.07;;
23802;SDS011;12082;51.786;6.018;2022-08-03T06:18:26;10.77;;;4.03;;
23802;SDS011;12082;51.786;6.018;2022-08-03T06:20:52;11.57;;;3.73;;
23802;SDS011;12082;51.786;6.018;2022-08-03T06:23:18;9.60;;;4.50;;
23802;SDS011;12082;51.786;6.018;2022-08-03T06:25:44;10.83;;;3.70;;
23802;SDS011;12082;51.786;6.018;2022-08-03T06:28:10;10.30;;;4.93;;
23802;SDS011;12082;51.786;6.018;2022-08-03T06:30:38;6.43;;;3.17;;
23802;SDS011;12082;51.786;6.018;2022-08-03T06:33:04;10.50;;;3.53;;
23802;SDS011;12082;51.786;6.018;2022-08-03T06:35:29;5.07;;;3.20;;
23802;SDS011;12082;51.786;6.018;2022-08-03T06:37:55;10.43;;;3.47;;
23802;SDS011;12082;51.786;6.018;2022-08-03T06:40:21;14.50;;;3.00;;
23802;SDS011;12082;51.786;6.018;2022-08-03T06:42:59;8.45;;;3.58;;
23802;SDS011;12082;51.786;6.018;2022-08-03T06:45:26;5.65;;;2.55;;
23802;SDS011;12082;51.786;6.018;2022-08-03T06:48:06;11.80;;;3.45;;
23802;SDS011;12082;51.786;6.018;2022-08-03T06:50:33;11.57;;;2.50;;
23802;SDS011;12082;51.786;6.018;2022-08-03T06:53:00;10.23;;;3.03;;
23802;SDS011;12082;51.786;6.018;2022-08-03T06:55:26;15.77;;;3.25;;
23802;SDS011;12082;51.786;6.018;2022-08-03T06:57:52;6.22;;;2.47;;
23802;SDS011;12082;51.786;6.018;2022-08-03T07:00:18;8.50;;;2.25;;
23802;SDS011;12082;51.786;6.018;2022-08-03T07:02:44;11.30;;;2.75;;
23802;SDS011;12082;51.786;6.018;2022-08-03T07:05:10;12.07;;;2.88;;
23802;SDS011;12082;51.786;6.018;2022-08-03T07:07:36;8.67;;;2.50;;
23802;SDS011;12082;51.786;6.018;2022-08-03T07:10:02;10.52;;;2.53;;
23802;SDS011;12082;51.786;6.018;2022-08-03T07:12:29;11.25;;;2.53;;
23802;SDS011;12082;51.786;6.018;2022-08-03T07:14:56;7.38;;;2.47;;
23802;SDS011;12082;51.786;6.018;2022-08-03T07:17:22;8.13;;;2.67;;
23802;SDS011;12082;51.786;6.018;2022-08-03T07:19:48;11.88;;;2.78;;
23802;SDS011;12082;51.786;6.018;2022-08-03T07:22:13;6.10;;;2.65;;
23802;SDS011;12082;51.786;6.018;2022-08-03T07:24:39;12.55;;;2.55;;
23802;SDS011;12082;51.786;6.018;2022-08-03T07:27:06;11.85;;;2.85;;
23802;SDS011;12082;51.786;6.018;2022-08-03T07:29:33;8.57;;;2.33;;
23802;SDS011;12082;51.786;6.018;2022-08-03T07:31:58;8.73;;;2.22;;
23802;SDS011;12082;51.786;6.018;2022-08-03T07:34:24;9.20;;;2.80;;
23802;SDS011;12082;51.786;6.018;2022-08-03T07:36:50;12.25;;;2.53;;
23802;SDS011;12082;51.786;6.018;2022-08-03T07:39:15;10.90;;;2.83;;
23802;SDS011;12082;51.786;6.018;2022-08-03T07:41:41;12.13;;;2.40;;
23802;SDS011;12082;51.786;6.018;2022-08-03T07:44:06;9.82;;;1.85;;
23802;SDS011;12082;51.786;6.018;2022-08-03T07:46:32;12.68;;;2.95;;
23802;SDS011;12082;51.786;6.018;2022-08-03T07:48:58;7.45;;;2.53;;
23802;SDS011;12082;51.786;6.018;2022-08-03T07:51:23;8.48;;;2.50;;
23802;SDS011;12082;51.786;6.018;2022-08-03T07:53:49;11.73;;;2.60;;
23802;SDS011;12082;51.786;6.018;2022-08-03T07:56:14;12.82;;;2.42;;
23802;SDS011;12082;51.786;6.018;2022-08-03T07:58:40;11.05;;;3.28;;
23802;SDS011;12082;51.786;6.018;2022-08-03T08:01:06;10.13;;;2.20;;
23802;SDS011;12082;51.786;6.018;2022-08-03T08:03:32;16.73;;;4.05;;
23802;SDS011;12082;51.786;6.018;2022-08-03T08:05:57;13.10;;;2.45;;
23802;SDS011;12082;51.786;6.018;2022-08-03T08:08:23;12.68;;;2.80;;
23802;SDS011;12082;51.786;6.018;2022-08-03T08:10:48;13.25;;;2.83;;
23802;SDS011;12082;51.786;6.018;2022-08-03T08:13:14;12.95;;;2.88;;
23802;SDS011;12082;51.786;6.018;2022-08-03T08:15:39;13.75;;;3.20;;
23802;SDS011;12082;51.786;6.018;2022-08-03T08:18:05;12.30;;;2.25;;
23802;SDS011;12082;51.786;6.018;2022-08-03T08:20:32;11.43;;;2.70;;
23802;SDS011;12082;51.786;6.018;2022-08-03T08:23:00;8.75;;;2.42;;
23802;SDS011;12082;51.786;6.018;2022-08-03T08:25:28;14.35;;;2.40;;
23802;SDS011;12082;51.786;6.018;2022-08-03T08:27:55;9.07;;;2.42;;
23802;SDS011;12082;51.786;6.018;2022-08-03T08:30:22;10.95;;;1.90;;
23802;SDS011;12082;51.786;6.018;2022-08-03T08:32:48;13.02;;;2.80;;
23802;SDS011;12082;51.786;6.018;2022-08-03T08:35:14;11.65;;;2.55;;
23802;SDS011;12082;51.786;6.018;2022-08-03T08:37:40;6.95;;;2.20;;
23802;SDS011;12082;51.786;6.018;2022-08-03T08:40:07;12.30;;;2.00;;
23802;SDS011;12082;51.786;6.018;2022-08-03T08:42:35;7.70;;;2.30;;
23802;SDS011;12082;51.786;6.018;2022-08-03T08:45:02;16.23;;;2.47;;
23802;SDS011;12082;51.786;6.018;2022-08-03T08:47:30;15.23;;;2.33;;
23802;SDS011;12082;51.786;6.018;2022-08-03T08:49:57;6.28;;;2.08;;
23802;SDS011;12082;51.786;6.018;2022-08-03T08:52:27;6.20;;;1.67;;
23802;SDS011;12082;51.786;6.018;2022-08-03T08:55:03;12.57;;;2.10;;
23802;SDS011;12082;51.786;6.018;2022-08-03T08:57:35;11.40;;;2.35;;
23802;SDS011;12082;51.786;6.018;2022-08-03T09:00:06;8.75;;;2.03;;
23802;SDS011;12082;51.786;6.018;2022-08-03T09:02:39;8.25;;;2.65;;
23802;SDS011;12082;51.786;6.018;2022-08-03T09:05:09;7.80;;;2.22;;
23802;SDS011;12082;51.786;6.018;2022-08-03T09:07:37;11.23;;;2.28;;
23802;SDS011;12082;51.786;6.018;2022-08-03T09:10:03;12.27;;;2.42;;
23802;SDS011;12082;51.786;6.018;2022-08-03T09:12:29;10.50;;;2.50;;
23802;SDS011;12082;51.786;6.018;2022-08-03T09:14:55;9.37;;;2.20;;
23802;SDS011;12082;51.786;6.018;2022-08-03T09:17:20;8.53;;;1.97;;
23802;SDS011;12082;51.786;6.018;2022-08-03T09:20:02;13.57;;;2.40;;
23802;SDS011;12082;51.786;6.018;2022-08-03T09:22:33;9.17;;;2.97;;
23802;SDS011;12082;51.786;6.018;2022-08-03T09:25:03;12.10;;;3.13;;
23802;SDS011;12082;51.786;6.018;2022-08-03T09:27:44;9.57;;;2.47;;
23802;SDS011;12082;51.786;6.018;2022-08-03T09:30:14;10.93;;;2.10;;
23802;SDS011;12082;51.786;6.018;2022-08-03T09:32:41;5.47;;;1.70;;
23802;SDS011;12082;51.786;6.018;2022-08-03T09:35:10;10.33;;;2.30;;
23802;SDS011;12082;51.786;6.018;2022-08-03T09:37:37;10.47;;;2.73;;
23802;SDS011;12082;51.786;6.018;2022-08-03T09:40:04;11.73;;;2.23;;
23802;SDS011;12082;51.786;6.018;2022-08-03T09:42:30;12.23;;;2.30;;
23802;SDS011;12082;51.786;6.018;2022-08-03T09:44:59;6.23;;;2.13;;
23802;SDS011;12082;51.786;6.018;2022-08-03T09:47:28;8.30;;;2.30;;
23802;SDS011;12082;51.786;6.018;2022-08-03T09:49:57;15.70;;;2.53;;
23802;SDS011;12082;51.786;6.018;2022-08-03T09:52:29;7.47;;;2.10;;
23802;SDS011;12082;51.786;6.018;2022-08-03T09:54:57;8.57;;;2.33;;
23802;SDS011;12082;51.786;6.018;2022-08-03T09:57:24;7.90;;;2.53;;
23802;SDS011;12082;51.786;6.018;2022-08-03T09:59:51;8.00;;;2.13;;
23802;SDS011;12082;51.786;6.018;2022-08-03T10:02:21;7.97;;;2.20;;
23802;SDS011;12082;51.786;6.018;2022-08-03T10:04:48;11.73;;;2.60;;
23802;SDS011;12082;51.786;6.018;2022-08-03T10:07:20;8.20;;;1.83;;
23802;SDS011;12082;51.786;6.018;2022-08-03T10:09:58;8.03;;;2.33;;
23802;SDS011;12082;51.786;6.018;2022-08-03T10:12:25;7.80;;;1.90;;
23802;SDS011;12082;51.786;6.018;2022-08-03T10:14:51;9.50;;;2.13;;
23802;SDS011;12082;51.786;6.018;2022-08-03T10:17:18;15.83;;;2.33;;
23802;SDS011;12082;51.786;6.018;2022-08-03T10:19:45;11.23;;;2.53;;
23802;SDS011;12082;51.786;6.018;2022-08-03T10:22:15;8.07;;;2.20;;
23802;SDS011;12082;51.786;6.018;2022-08-03T10:24:58;12.70;;;2.50;;
23802;SDS011;12082;51.786;6.018;2022-08-03T10:27:33;11.33;;;2.40;;
23802;SDS011;12082;51.786;6.018;2022-08-03T10:30:02;13.07;;;2.63;;
23802;SDS011;12082;51.786;6.018;2022-08-03T10:32:33;9.17;;;1.83;;
23802;SDS011;12082;51.786;6.018;2022-08-03T10:35:06;11.03;;;2.30;;
23802;SDS011;12082;51.786;6.018;2022-08-03T10:37:42;6.00;;;2.03;;
23802;SDS011;12082;51.786;6.018;2022-08-03T10:40:21;11.60;;;2.10;;
23802;SDS011;12082;51.786;6.018;2022-08-03T10:42:48;17.13;;;3.17;;
23802;SDS011;12082;51.786;6.018;2022-08-03T10:45:18;12.10;;;2.23;;
23802;SDS011;12082;51.786;6.018;2022-08-03T10:47:46;14.80;;;2.70;;
23802;SDS011;12082;51.786;6.018;2022-08-03T10:50:13;12.83;;;3.33;;
23802;SDS011;12082;51.786;6.018;2022-08-03T10:55:40;16.97;;;3.53;;
23802;SDS011;12082;51.786;6.018;2022-08-03T11:01:02;18.97;;;3.07;;
23802;SDS011;12082;51.786;6.018;2022-08-03T11:03:29;15.30;;;2.87;;
23802;SDS011;12082;51.786;6.018;2022-08-03T11:11:39;9.83;;;2.87;;
23802;SDS011;12082;51.786;6.018;2022-08-03T11:14:07;19.17;;;3.70;;
23802;SDS011;12082;51.786;6.018;2022-08-03T11:16:40;13.67;;;3.90;;
23802;SDS011;12082;51.786;6.018;2022-08-03T11:19:13;18.90;;;3.57;;
23802;SDS011;12082;51.786;6.018;2022-08-03T11:27:19;20.17;;;2.90;;
23802;SDS011;12082;51.786;6.018;2022-08-03T11:35:57;10.87;;;2.90;;
23802;SDS011;12082;51.786;6.018;2022-08-03T11:40:37;23.08;;;4.40;;
23802;SDS011;12082;51.786;6.018;2022-08-03T11:45:58;20.95;;;3.20;;
23802;SDS011;12082;51.786;6.018;2022-08-03T11:48:46;17.57;;;3.67;;
23802;SDS011;12082;51.786;6.018;2022-08-03T11:53:52;20.90;;;4.50;;
23802;SDS011;12082;51.786;6.018;2022-08-03T11:56:18;21.55;;;4.20;;
23802;SDS011;12082;51.786;6.018;2022-08-03T11:58:48;19.45;;;5.20;;
23802;SDS011;12082;51.786;6.018;2022-08-03T12:01:17;17.27;;;3.80;;
23802;SDS011;12082;51.786;6.018;2022-08-03T12:03:43;12.95;;;3.88;;
23802;SDS011;12082;51.786;6.018;2022-08-03T12:06:10;24.98;;;3.90;;
23802;SDS011;12082;51.786;6.018;2022-08-03T12:08:37;13.55;;;3.97;;
23802;SDS011;12082;51.786;6.018;2022-08-03T12:11:04;16.63;;;3.63;;
23802;SDS011;12082;51.786;6.018;2022-08-03T12:16:22;23.25;;;4.05;;
23802;SDS011;12082;51.786;6.018;2022-08-03T12:18:59;16.77;;;3.58;;
23802;SDS011;12082;51.786;6.018;2022-08-03T12:21:26;25.83;;;3.80;;
23802;SDS011;12082;51.786;6.018;2022-08-03T12:23:59;12.27;;;3.30;;
23802;SDS011;12082;51.786;6.018;2022-08-03T12:26:28;13.35;;;2.85;;
23802;SDS011;12082;51.786;6.018;2022-08-03T12:29:06;17.35;;;3.55;;
23802;SDS011;12082;51.786;6.018;2022-08-03T12:31:31;17.08;;;3.15;;
23802;SDS011;12082;51.786;6.018;2022-08-03T12:33:58;16.35;;;3.15;;
23802;SDS011;12082;51.786;6.018;2022-08-03T12:36:27;18.85;;;3.17;;
23802;SDS011;12082;51.786;6.018;2022-08-03T12:38:57;16.00;;;2.72;;
23802;SDS011;12082;51.786;6.018;2022-08-03T12:41:28;14.38;;;2.83;;
23802;SDS011;12082;51.786;6.018;2022-08-03T12:44:02;15.52;;;2.67;;
23802;SDS011;12082;51.786;6.018;2022-08-03T12:46:32;10.48;;;2.58;;
23802;SDS011;12082;51.786;6.018;2022-08-03T12:49:00;9.55;;;2.03;;
23802;SDS011;12082;51.786;6.018;2022-08-03T12:51:54;12.65;;;2.78;;
23802;SDS011;12082;51.786;6.018;2022-08-03T12:54:22;19.83;;;3.03;;
23802;SDS011;12082;51.786;6.018;2022-08-03T12:57:00;11.95;;;2.25;;
23802;SDS011;12082;51.786;6.018;2022-08-03T12:59:27;12.77;;;2.25;;
23802;SDS011;12082;51.786;6.018;2022-08-03T13:01:57;12.77;;;2.38;;
23802;SDS011;12082;51.786;6.018;2022-08-03T13:04:33;10.60;;;1.83;;
23802;SDS011;12082;51.786;6.018;2022-08-03T13:07:00;11.02;;;2.70;;
23802;SDS011;12082;51.786;6.018;2022-08-03T13:09:28;16.80;;;2.88;;
23802;SDS011;12082;51.786;6.018;2022-08-03T13:12:04;12.05;;;3.15;;
23802;SDS011;12082;51.786;6.018;2022-08-03T13:14:31;6.78;;;2.00;;
23802;SDS011;12082;51.786;6.018;2022-08-03T13:16:57;8.90;;;3.17;;
23802;SDS011;12082;51.786;6.018;2022-08-03T13:19:22;9.55;;;2.72;;
23802;SDS011;12082;51.786;6.018;2022-08-03T13:21:48;15.00;;;2.63;;
23802;SDS011;12082;51.786;6.018;2022-08-03T13:24:14;8.98;;;1.88;;
23802;SDS011;12082;51.786;6.018;2022-08-03T13:26:40;7.47;;;2.20;;
23802;SDS011;12082;51.786;6.018;2022-08-03T13:29:05;7.07;;;2.35;;
23802;SDS011;12082;51.786;6.018;2022-08-03T13:31:31;12.43;;;2.38;;
23802;SDS011;12082;51.786;6.018;2022-08-03T13:33:56;11.30;;;2.05;;
23802;SDS011;12082;51.786;6.018;2022-08-03T13:36:22;9.93;;;2.25;;
23802;SDS011;12082;51.786;6.018;2022-08-03T13:38:49;9.57;;;2.28;;
23802;SDS011;12082;51.786;6.018;2022-08-03T13:41:14;11.00;;;2.72;;
23802;SDS011;12082;51.786;6.018;2022-08-03T13:43:40;6.07;;;2.45;;
23802;SDS011;12082;51.786;6.018;2022-08-03T13:46:06;6.10;;;2.13;;
23802;SDS011;12082;51.786;6.018;2022-08-03T13:48:31;11.88;;;2.05;;
23802;SDS011;12082;51.786;6.018;2022-08-03T13:50:57;10.02;;;2.28;;
23802;SDS011;12082;51.786;6.018;2022-08-03T13:53:23;12.20;;;2.05;;
23802;SDS011;12082;51.786;6.018;2022-08-03T13:55:48;8.00;;;1.80;;
23802;SDS011;12082;51.786;6.018;2022-08-03T13:58:14;10.98;;;1.60;;
23802;SDS011;12082;51.786;6.018;2022-08-03T14:00:39;8.90;;;1.85;;
23802;SDS011;12082;51.786;6.018;2022-08-03T14:03:05;8.70;;;2.95;;
23802;SDS011;12082;51.786;6.018;2022-08-03T14:05:31;6.13;;;1.75;;
23802;SDS011;12082;51.786;6.018;2022-08-03T14:07:58;8.00;;;1.45;;
23802;SDS011;12082;51.786;6.018;2022-08-03T14:10:25;8.75;;;2.25;;
23802;SDS011;12082;51.786;6.018;2022-08-03T14:12:50;3.65;;;1.83;;
23802;SDS011;12082;51.786;6.018;2022-08-03T14:15:16;7.32;;;1.48;;
23802;SDS011;12082;51.786;6.018;2022-08-03T14:17:41;7.03;;;1.42;;
23802;SDS011;12082;51.786;6.018;2022-08-03T14:20:07;3.20;;;1.60;;
23802;SDS011;12082;51.786;6.018;2022-08-03T14:22:33;5.28;;;1.60;;
23802;SDS011;12082;51.786;6.018;2022-08-03T14:24:59;11.38;;;2.33;;
23802;SDS011;12082;51.786;6.018;2022-08-03T14:27:25;6.53;;;1.55;;
23802;SDS011;12082;51.786;6.018;2022-08-03T14:29:50;7.75;;;1.80;;
23802;SDS011;12082;51.786;6.018;2022-08-03T14:32:16;7.25;;;1.70;;
23802;SDS011;12082;51.786;6.018;2022-08-03T14:34:41;5.43;;;2.15;;
23802;SDS011;12082;51.786;6.018;2022-08-03T14:37:07;6.13;;;1.60;;
23802;SDS011;12082;51.786;6.018;2022-08-03T14:39:33;6.55;;;1.67;;
23802;SDS011;12082;51.786;6.018;2022-08-03T14:41:58;7.07;;;2.28;;
23802;SDS011;12082;51.786;6.018;2022-08-03T14:44:24;5.07;;;1.90;;
23802;SDS011;12082;51.786;6.018;2022-08-03T14:46:49;5.07;;;1.73;;
23802;SDS011;12082;51.786;6.018;2022-08-03T14:49:15;7.43;;;1.42;;
23802;SDS011;12082;51.786;6.018;2022-08-03T14:51:41;10.15;;;2.10;;
23802;SDS011;12082;51.786;6.018;2022-08-03T14:54:06;4.57;;;1.65;;
23802;SDS011;12082;51.786;6.018;2022-08-03T14:56:32;9.73;;;1.52;;
23802;SDS011;12082;51.786;6.018;2022-08-03T14:58:57;10.45;;;2.60;;
23802;SDS011;12082;51.786;6.018;2022-08-03T15:01:23;7.15;;;1.80;;
23802;SDS011;12082;51.786;6.018;2022-08-03T15:03:48;7.07;;;1.80;;
23802;SDS011;12082;51.786;6.018;2022-08-03T15:06:14;4.95;;;1.73;;
23802;SDS011;12082;51.786;6.018;2022-08-03T15:08:40;8.07;;;1.65;;
23802;SDS011;12082;51.786;6.018;2022-08-03T15:11:05;7.07;;;2.40;;
23802;SDS011;12082;51.786;6.018;2022-08-03T15:13:31;5.85;;;1.60;;
23802;SDS011;12082;51.786;6.018;2022-08-03T15:15:56;4.70;;;1.67;;
23802;SDS011;12082;51.786;6.018;2022-08-03T15:18:22;3.45;;;1.55;;
23802;SDS011;12082;51.786;6.018;2022-08-03T15:20:47;6.70;;;1.50;;
23802;SDS011;12082;51.786;6.018;2022-08-03T15:23:14;3.83;;;1.40;;
23802;SDS011;12082;51.786;6.018;2022-08-03T15:25:41;5.80;;;1.70;;
23802;SDS011;12082;51.786;6.018;2022-08-03T15:28:08;3.67;;;1.85;;
23802;SDS011;12082;51.786;6.018;2022-08-03T15:30:34;6.32;;;1.67;;